createdAt,value
2018-12-09T00:00:25.464Z,10.54
2018-12-09T00:02:54.239Z,10.56
2018-12-09T00:05:22.968Z,10.58
2018-12-09T00:07:51.606Z,10.59
2018-12-09T00:10:20.223Z,10.60
2018-12-09T00:12:48.853Z,10.61
2018-12-09T00:15:17.471Z,10.64
2018-12-09T00:17:46.093Z,10.67
2018-12-09T00:20:14.746Z,10.69
2018-12-09T00:22:43.378Z,10.71
2018-12-09T00:25:12.043Z,10.71
2018-12-09T00:27:40.697Z,10.72
2018-12-09T00:30:09.441Z,10.74
2018-12-09T00:32:38.095Z,10.75
2018-12-09T00:35:07.152Z,10.76
2018-12-09T00:37:35.802Z,10.78
2018-12-09T00:40:05.044Z,10.79
2018-12-09T00:42:33.662Z,10.78
2018-12-09T00:45:02.299Z,10.79
2018-12-09T00:47:30.909Z,10.78
2018-12-09T00:49:59.511Z,10.79
2018-12-09T00:52:28.144Z,10.79
2018-12-09T00:54:56.801Z,10.82
2018-12-09T00:57:25.438Z,10.82
2018-12-09T00:59:54.078Z,10.82
2018-12-09T01:02:22.693Z,10.80
2018-12-09T01:04:51.341Z,10.81
2018-12-09T01:07:20.030Z,10.81
2018-12-09T01:09:48.630Z,10.80
2018-12-09T01:12:17.261Z,10.78
2018-12-09T01:14:46.003Z,10.78
2018-12-09T01:17:14.631Z,10.77
2018-12-09T01:19:43.360Z,10.78
2018-12-09T01:22:11.973Z,10.80
2018-12-09T01:24:40.587Z,10.80
2018-12-09T01:27:09.217Z,10.82
2018-12-09T01:29:37.833Z,10.84
2018-12-09T01:32:06.523Z,10.85
2018-12-09T01:34:35.163Z,10.86
2018-12-09T01:37:03.775Z,10.88
2018-12-09T01:39:32.406Z,10.85
2018-12-09T01:42:01.037Z,10.82
2018-12-09T01:44:30.114Z,10.76
2018-12-09T01:46:58.740Z,10.74
2018-12-09T01:49:27.353Z,10.73
2018-12-09T01:51:55.991Z,10.70
2018-12-09T01:54:24.624Z,10.69
2018-12-09T01:56:53.366Z,10.69
2018-12-09T01:59:22.014Z,10.70
2018-12-09T02:01:50.659Z,10.73
2018-12-09T02:04:19.711Z,10.75
2018-12-09T02:06:48.370Z,10.76
2018-12-09T02:09:17.166Z,10.78
2018-12-09T02:11:46.064Z,10.80
2018-12-09T02:14:14.702Z,10.82
2018-12-09T02:16:43.482Z,10.83
2018-12-09T02:19:18.515Z,10.85
2018-12-09T02:21:47.377Z,10.88
2018-12-09T02:24:16.672Z,10.87
2018-12-09T02:26:45.570Z,10.89
2018-12-09T02:29:14.218Z,10.89
2018-12-09T02:31:42.913Z,10.91
2018-12-09T02:34:11.764Z,10.91
2018-12-09T02:36:40.997Z,10.93
2018-12-09T02:39:11.704Z,10.93
2018-12-09T02:41:40.369Z,10.94
2018-12-09T02:44:09.013Z,10.91
2018-12-09T02:46:38.009Z,10.92
2018-12-09T02:49:06.650Z,10.92
2018-12-09T02:51:35.434Z,10.94
2018-12-09T02:54:04.220Z,10.95
2018-12-09T02:56:32.877Z,10.96
2018-12-09T02:59:02.095Z,10.99
2018-12-09T03:01:30.737Z,11.00
2018-12-09T03:03:59.368Z,11.01
2018-12-09T03:06:28.023Z,11.02
2018-12-09T03:08:56.789Z,11.01
2018-12-09T03:11:25.424Z,10.95
2018-12-09T03:13:54.016Z,10.89
2018-12-09T03:16:22.901Z,10.85
2018-12-09T03:18:51.518Z,10.81
2018-12-09T03:21:20.127Z,10.80
2018-12-09T03:23:48.738Z,10.80
2018-12-09T03:26:17.379Z,10.82
2018-12-09T03:28:45.990Z,10.82
2018-12-09T03:31:14.740Z,10.84
2018-12-09T03:33:43.395Z,10.86
2018-12-09T03:36:12.019Z,10.88
2018-12-09T03:38:40.668Z,10.90
2018-12-09T03:41:09.490Z,10.92
2018-12-09T03:43:38.560Z,10.94
2018-12-09T03:46:07.326Z,10.96
2018-12-09T03:48:35.941Z,11.01
2018-12-09T03:51:04.589Z,11.01
2018-12-09T03:53:33.534Z,11.05
2018-12-09T03:56:02.174Z,11.06
2018-12-09T03:58:30.845Z,11.09
2018-12-09T04:00:59.583Z,11.11
2018-12-09T04:03:28.239Z,11.12
2018-12-09T04:05:56.830Z,11.15
2018-12-09T04:08:25.524Z,11.15
2018-12-09T04:10:54.132Z,11.17
2018-12-09T04:13:22.761Z,11.17
2018-12-09T04:15:51.383Z,11.18
2018-12-09T04:18:19.994Z,11.19
2018-12-09T04:20:48.640Z,11.18
2018-12-09T04:23:17.267Z,11.19
2018-12-09T04:25:45.882Z,11.19
2018-12-09T04:28:15.051Z,11.19
2018-12-09T04:30:43.789Z,11.20
2018-12-09T04:33:12.416Z,11.22
2018-12-09T04:35:41.046Z,11.23
2018-12-09T04:38:09.664Z,11.24
2018-12-09T04:40:38.312Z,11.23
2018-12-09T04:43:06.965Z,11.23
2018-12-09T04:45:35.580Z,11.22
2018-12-09T04:48:04.221Z,11.19
2018-12-09T04:50:33.352Z,11.13
2018-12-09T04:53:02.087Z,11.04
2018-12-09T04:55:31.359Z,10.91
2018-12-09T04:57:59.990Z,10.79
2018-12-09T05:00:39.735Z,10.69
2018-12-09T05:03:08.488Z,10.60
2018-12-09T05:05:37.089Z,10.56
2018-12-09T05:08:05.734Z,10.49
2018-12-09T05:10:34.374Z,10.45
2018-12-09T05:13:03.178Z,10.43
2018-12-09T05:15:31.968Z,10.38
2018-12-09T05:18:00.570Z,10.32
2018-12-09T05:20:29.199Z,10.26
2018-12-09T05:22:57.831Z,10.22
2018-12-09T05:25:27.674Z,10.22
2018-12-09T05:27:56.444Z,10.19
2018-12-09T05:30:25.675Z,10.18
2018-12-09T05:32:55.273Z,10.18
2018-12-09T05:35:25.666Z,10.20
2018-12-09T05:37:54.297Z,10.19
2018-12-09T05:40:23.478Z,10.24
2018-12-09T05:42:52.102Z,10.26
2018-12-09T05:45:20.711Z,10.30
2018-12-09T05:47:49.331Z,10.33
2018-12-09T05:50:17.978Z,10.36
2018-12-09T05:52:47.202Z,10.41
2018-12-09T05:55:15.846Z,10.45
2018-12-09T05:57:45.003Z,10.50
2018-12-09T06:00:13.646Z,10.55
2018-12-09T06:02:53.327Z,10.54
2018-12-09T06:05:22.022Z,10.52
2018-12-09T06:07:51.435Z,10.50
2018-12-09T06:10:20.079Z,10.50
2018-12-09T06:12:48.721Z,10.49
2018-12-09T06:15:17.357Z,10.51
2018-12-09T06:17:45.970Z,10.52
2018-12-09T06:20:14.650Z,10.56
2018-12-09T06:22:43.282Z,10.57
2018-12-09T06:25:11.926Z,10.61
2018-12-09T06:27:40.580Z,10.64
2018-12-09T06:30:10.835Z,10.66
2018-12-09T06:32:39.546Z,10.67
2018-12-09T06:35:08.869Z,10.66
2018-12-09T06:37:37.519Z,10.66
2018-12-09T06:40:07.003Z,10.64
2018-12-09T06:42:36.086Z,10.66
2018-12-09T06:45:05.746Z,10.68
2018-12-09T06:47:34.329Z,10.70
2018-12-09T06:50:03.163Z,10.72
2018-12-09T06:52:31.818Z,10.75
2018-12-09T06:55:00.460Z,10.78
2018-12-09T06:57:29.091Z,10.78
2018-12-09T06:59:58.912Z,10.76
2018-12-09T07:02:27.578Z,10.75
2018-12-09T07:04:56.206Z,10.74
2018-12-09T07:07:24.858Z,10.72
2018-12-09T07:09:53.518Z,10.72
2018-12-09T07:12:22.137Z,10.70
2018-12-09T07:14:50.761Z,10.69
2018-12-09T07:17:19.399Z,10.69
2018-12-09T07:19:48.080Z,10.70
2018-12-09T07:22:16.671Z,10.72
2018-12-09T07:24:45.294Z,10.76
2018-12-09T07:27:14.398Z,10.78
2018-12-09T07:29:43.033Z,10.74
2018-12-09T07:32:11.635Z,10.67
2018-12-09T07:34:40.262Z,10.62
2018-12-09T07:37:09.862Z,10.56
2018-12-09T07:39:38.458Z,10.53
2018-12-09T07:42:07.102Z,10.54
2018-12-09T07:44:35.744Z,10.55
2018-12-09T07:47:04.402Z,10.56
2018-12-09T07:49:33.014Z,10.57
2018-12-09T07:52:01.943Z,10.57
2018-12-09T07:54:30.902Z,10.60
2018-12-09T07:56:59.517Z,10.62
2018-12-09T07:59:28.198Z,10.64
2018-12-09T08:01:56.956Z,10.69
2018-12-09T08:04:25.615Z,10.73
2018-12-09T08:06:54.239Z,10.75
2018-12-09T08:09:22.870Z,10.78
2018-12-09T08:11:51.522Z,10.77
2018-12-09T08:14:20.247Z,10.77
2018-12-09T08:16:48.901Z,10.80
2018-12-09T08:19:17.557Z,10.81
2018-12-09T08:21:46.172Z,10.82
2018-12-09T08:24:14.805Z,10.79
2018-12-09T08:26:43.488Z,10.75
2018-12-09T08:29:12.135Z,10.73
2018-12-09T08:31:41.047Z,10.70
2018-12-09T08:34:09.785Z,10.71
2018-12-09T08:36:38.424Z,10.70
2018-12-09T08:39:07.210Z,10.68
2018-12-09T08:41:35.838Z,10.60
2018-12-09T08:44:04.506Z,10.54
2018-12-09T08:46:33.150Z,10.51
2018-12-09T08:49:01.840Z,10.44
2018-12-09T08:51:30.610Z,10.42
2018-12-09T08:53:59.336Z,10.42
2018-12-09T08:56:28.342Z,10.44
2018-12-09T08:58:56.985Z,10.48
2018-12-09T09:01:25.660Z,10.50
2018-12-09T09:03:54.542Z,10.54
2018-12-09T09:06:23.195Z,10.57
2018-12-09T09:08:51.808Z,10.61
2018-12-09T09:11:20.930Z,10.64
2018-12-09T09:13:49.597Z,10.67
2018-12-09T09:16:18.205Z,10.69
2018-12-09T09:18:46.823Z,10.73
2018-12-09T09:21:15.479Z,10.75
2018-12-09T09:23:44.161Z,10.79
2018-12-09T09:26:12.771Z,10.81
2018-12-09T09:28:42.957Z,10.84
2018-12-09T09:31:11.764Z,10.86
2018-12-09T09:33:40.433Z,10.87
2018-12-09T09:36:09.199Z,10.88
2018-12-09T09:38:37.878Z,10.87
2018-12-09T09:41:06.489Z,10.89
2018-12-09T09:43:35.106Z,10.90
2018-12-09T09:46:03.782Z,10.89
2018-12-09T09:48:32.396Z,10.91
2018-12-09T09:51:01.013Z,10.90
2018-12-09T09:53:29.658Z,10.91
2018-12-09T09:55:58.272Z,10.92
2018-12-09T09:58:26.898Z,10.94
2018-12-09T10:00:55.516Z,10.96
2018-12-09T10:03:25.975Z,10.96
2018-12-09T10:05:54.891Z,10.95
2018-12-09T10:08:24.196Z,10.96
2018-12-09T10:10:52.814Z,10.97
2018-12-09T10:13:21.456Z,10.98
2018-12-09T10:15:50.205Z,10.98
2018-12-09T10:18:18.845Z,10.99
2018-12-09T10:20:47.477Z,10.99
2018-12-09T10:23:16.212Z,11.00
2018-12-09T10:25:44.911Z,10.98
2018-12-09T10:28:13.527Z,10.97
2018-12-09T10:30:42.131Z,10.95
2018-12-09T10:33:10.775Z,10.93
2018-12-09T10:35:39.473Z,10.92
2018-12-09T10:38:08.126Z,10.95
2018-12-09T10:40:36.780Z,10.95
2018-12-09T10:43:05.387Z,10.96
2018-12-09T10:45:34.002Z,10.97
2018-12-09T10:48:02.615Z,10.96
2018-12-09T10:50:31.239Z,10.96
2018-12-09T10:52:59.894Z,10.97
2018-12-09T10:55:28.543Z,10.98
2018-12-09T10:57:57.199Z,11.00
2018-12-09T11:00:31.064Z,11.01
2018-12-09T11:03:00.462Z,11.03
2018-12-09T11:05:29.066Z,11.08
2018-12-09T11:07:57.725Z,11.10
2018-12-09T11:10:26.366Z,11.14
2018-12-09T11:12:55.038Z,11.15
2018-12-09T11:15:23.692Z,11.18
2018-12-09T11:17:52.309Z,11.20
2018-12-09T11:20:20.975Z,11.20
2018-12-09T11:22:49.607Z,11.21
2018-12-09T11:25:18.240Z,11.26
2018-12-09T11:27:46.847Z,11.30
2018-12-09T11:30:15.501Z,11.33
2018-12-09T11:32:44.126Z,11.33
2018-12-09T11:35:12.779Z,11.33
2018-12-09T11:37:41.410Z,11.33
2018-12-09T11:40:10.032Z,11.33
2018-12-09T11:42:38.698Z,11.33
2018-12-09T11:45:07.530Z,11.32
2018-12-09T11:47:36.181Z,11.30
2018-12-09T11:50:05.477Z,11.27
2018-12-09T11:52:34.138Z,11.26
2018-12-09T11:55:02.756Z,11.23
2018-12-09T11:57:31.368Z,11.24
2018-12-09T12:00:00.006Z,11.26
2018-12-09T12:02:28.620Z,11.27
2018-12-09T12:04:57.265Z,11.27
2018-12-09T12:07:25.878Z,11.26
2018-12-09T12:09:54.508Z,11.24
2018-12-09T12:12:23.162Z,11.25
2018-12-09T12:14:51.769Z,11.27
2018-12-09T12:17:20.430Z,11.28
2018-12-09T12:19:49.043Z,11.29
2018-12-09T12:22:17.693Z,11.34
2018-12-09T12:24:46.325Z,11.40
2018-12-09T12:27:14.979Z,11.46
2018-12-09T12:29:43.632Z,11.50
2018-12-09T12:32:12.299Z,11.52
2018-12-09T12:34:40.935Z,11.56
2018-12-09T12:37:09.533Z,11.55
2018-12-09T12:39:38.194Z,11.53
2018-12-09T12:42:06.837Z,11.53
2018-12-09T12:44:35.753Z,11.53
2018-12-09T12:47:04.531Z,11.51
2018-12-09T12:49:33.367Z,11.49
2018-12-09T12:52:02.397Z,11.48
2018-12-09T12:54:31.047Z,11.47
2018-12-09T12:56:59.754Z,11.50
2018-12-09T12:59:28.396Z,11.48
2018-12-09T13:01:57.023Z,11.52
2018-12-09T13:04:25.647Z,11.56
2018-12-09T13:06:54.371Z,11.57
2018-12-09T13:09:22.985Z,11.57
2018-12-09T13:11:51.731Z,11.57
2018-12-09T13:14:20.653Z,11.60
2018-12-09T13:16:49.467Z,11.60
2018-12-09T13:19:18.187Z,11.58
2018-12-09T13:21:46.806Z,11.60
2018-12-09T13:24:15.430Z,11.63
2018-12-09T13:26:44.040Z,11.64
2018-12-09T13:29:12.832Z,11.65
2018-12-09T13:31:41.430Z,11.64
2018-12-09T13:34:10.066Z,11.65
2018-12-09T13:36:39.570Z,11.63
2018-12-09T13:39:08.306Z,11.60
2018-12-09T13:41:36.943Z,11.54
2018-12-09T13:44:05.603Z,11.54
2018-12-09T13:46:34.242Z,11.56
2018-12-09T13:49:02.981Z,11.61
2018-12-09T13:51:31.671Z,11.64
2018-12-09T13:54:00.571Z,11.67
2018-12-09T13:56:29.207Z,11.66
2018-12-09T13:58:57.822Z,11.63
2018-12-09T14:01:26.524Z,11.60
2018-12-09T14:03:55.229Z,11.56
2018-12-09T14:06:23.969Z,11.51
2018-12-09T14:08:52.578Z,11.48
2018-12-09T14:11:21.328Z,11.46
2018-12-09T14:13:49.977Z,11.44
2018-12-09T14:16:19.022Z,11.41
2018-12-09T14:18:47.863Z,11.42
2018-12-09T14:21:16.543Z,11.45
2018-12-09T14:23:45.166Z,11.48
2018-12-09T14:26:13.826Z,11.52
2018-12-09T14:28:42.435Z,11.54
2018-12-09T14:31:11.046Z,11.53
2018-12-09T14:33:39.651Z,11.52
2018-12-09T14:36:08.642Z,11.49
2018-12-09T14:38:37.919Z,11.45
2018-12-09T14:41:06.530Z,11.41
2018-12-09T14:43:35.160Z,11.36
2018-12-09T14:46:03.831Z,11.31
2018-12-09T14:48:32.458Z,11.28
2018-12-09T14:51:01.050Z,11.25
2018-12-09T14:53:29.650Z,11.22
2018-12-09T14:55:58.262Z,11.18
2018-12-09T14:58:26.898Z,11.16
2018-12-09T15:00:55.518Z,11.14
2018-12-09T15:03:24.150Z,11.12
2018-12-09T15:05:52.786Z,11.10
2018-12-09T15:08:21.469Z,11.08
2018-12-09T15:10:50.104Z,11.05
2018-12-09T15:13:18.774Z,11.02
2018-12-09T15:15:47.424Z,11.00
2018-12-09T15:18:16.070Z,10.99
2018-12-09T15:20:44.718Z,10.97
2018-12-09T15:23:13.711Z,10.95
2018-12-09T15:25:42.340Z,10.94
2018-12-09T15:28:10.959Z,10.93
2018-12-09T15:30:39.827Z,10.94
2018-12-09T15:33:08.476Z,10.93
2018-12-09T15:35:37.121Z,10.91
2018-12-09T15:38:05.808Z,10.91
2018-12-09T15:40:34.480Z,10.88
2018-12-09T15:43:03.243Z,10.86
2018-12-09T15:45:31.926Z,10.84
2018-12-09T15:48:00.580Z,10.83
2018-12-09T15:50:29.197Z,10.82
2018-12-09T15:52:57.850Z,10.81
2018-12-09T15:55:27.029Z,10.81
2018-12-09T15:57:55.658Z,10.80
2018-12-09T16:00:26.316Z,10.81
2018-12-09T16:02:54.927Z,10.82
2018-12-09T16:05:23.580Z,10.84
2018-12-09T16:07:52.275Z,10.85
2018-12-09T16:10:20.955Z,10.86
2018-12-09T16:12:49.657Z,10.85
2018-12-09T16:15:18.324Z,10.86
2018-12-09T16:17:47.007Z,10.86
2018-12-09T16:20:15.701Z,10.87
2018-12-09T16:22:46.352Z,10.86
2018-12-09T16:25:15.154Z,10.86
2018-12-09T16:27:44.737Z,10.85
2018-12-09T16:30:14.070Z,10.84
2018-12-09T16:32:43.636Z,10.83
2018-12-09T16:35:12.446Z,10.84
2018-12-09T16:37:42.112Z,10.84
2018-12-09T16:40:10.858Z,10.84
2018-12-09T16:42:40.179Z,10.84
2018-12-09T16:45:09.066Z,10.85
2018-12-09T16:47:39.191Z,10.84
2018-12-09T16:50:08.327Z,10.85
2018-12-09T16:52:37.011Z,10.87
2018-12-09T16:55:05.975Z,10.87
2018-12-09T16:57:34.701Z,10.87
2018-12-09T17:00:03.426Z,10.86
2018-12-09T17:02:32.366Z,10.85
2018-12-09T17:05:01.089Z,10.84
2018-12-09T17:07:29.776Z,10.82
2018-12-09T17:09:58.489Z,10.82
2018-12-09T17:12:27.285Z,10.82
2018-12-09T17:14:55.966Z,10.81
2018-12-09T17:17:24.598Z,10.80
2018-12-09T17:19:53.266Z,10.81
2018-12-09T17:22:21.881Z,10.82
2018-12-09T17:24:51.006Z,10.80
2018-12-09T17:27:20.330Z,10.79
2018-12-09T17:29:49.025Z,10.80
2018-12-09T17:32:17.741Z,10.79
2018-12-09T17:34:47.253Z,10.78
2018-12-09T17:37:15.907Z,10.76
2018-12-09T17:39:45.351Z,10.76
2018-12-09T17:42:14.045Z,10.75
2018-12-09T17:44:43.064Z,10.76
2018-12-09T17:47:11.727Z,10.76
2018-12-09T17:49:40.428Z,10.76
2018-12-09T17:52:09.144Z,10.76
2018-12-09T17:54:37.857Z,10.76
2018-12-09T17:57:06.498Z,10.74
2018-12-09T17:59:35.150Z,10.73
2018-12-09T18:02:05.286Z,10.73
2018-12-09T18:04:33.927Z,10.72
2018-12-09T18:07:02.654Z,10.73
2018-12-09T18:09:31.306Z,10.73
2018-12-09T18:11:59.952Z,10.73
2018-12-09T18:14:28.576Z,10.72
2018-12-09T18:16:57.265Z,10.71
2018-12-09T18:19:25.890Z,10.69
2018-12-09T18:21:54.538Z,10.69
2018-12-09T18:24:23.352Z,10.69
2018-12-09T18:26:52.006Z,10.71
2018-12-09T18:29:20.653Z,10.72
2018-12-09T18:31:49.292Z,10.72
2018-12-09T18:34:17.976Z,10.71
2018-12-09T18:36:46.650Z,10.70
2018-12-09T18:39:15.309Z,10.71
2018-12-09T18:41:44.577Z,10.71
2018-12-09T18:44:14.049Z,10.72
2018-12-09T18:46:42.702Z,10.73
2018-12-09T18:49:11.315Z,10.72
2018-12-09T18:51:40.126Z,10.71
2018-12-09T18:54:08.954Z,10.72
2018-12-09T18:56:37.658Z,10.74
2018-12-09T18:59:06.499Z,10.74
2018-12-09T19:01:35.299Z,10.75
2018-12-09T19:04:04.801Z,10.75
2018-12-09T19:06:33.493Z,10.75
2018-12-09T19:09:02.167Z,10.76
2018-12-09T19:11:32.705Z,10.75
2018-12-09T19:14:01.348Z,10.76
2018-12-09T19:16:30.052Z,10.79
2018-12-09T19:18:58.711Z,10.81
2018-12-09T19:21:27.361Z,10.79
2018-12-09T19:23:56.032Z,10.80
2018-12-09T19:26:24.664Z,10.80
2018-12-09T19:28:53.341Z,10.81
2018-12-09T19:31:21.982Z,10.84
2018-12-09T19:33:50.639Z,10.85
2018-12-09T19:36:19.254Z,10.84
2018-12-09T19:39:01.091Z,10.84
2018-12-09T19:41:29.719Z,10.81
2018-12-09T19:43:58.361Z,10.78
2018-12-09T19:46:27.057Z,10.75
2018-12-09T19:48:55.682Z,10.73
2018-12-09T19:51:24.357Z,10.71
2018-12-09T19:53:53.008Z,10.69
2018-12-09T19:56:21.674Z,10.69
2018-12-09T19:58:50.463Z,10.69
2018-12-09T20:01:21.666Z,10.68
2018-12-09T20:03:50.446Z,10.67
2018-12-09T20:06:19.146Z,10.67
2018-12-09T20:08:47.954Z,10.66
2018-12-09T20:11:16.719Z,10.65
2018-12-09T20:13:45.388Z,10.64
2018-12-09T20:16:14.082Z,10.63
2018-12-09T20:18:42.938Z,10.61
2018-12-09T20:21:11.754Z,10.60
2018-12-09T20:23:40.434Z,10.58
2018-12-09T20:26:09.181Z,10.57
2018-12-09T20:28:37.895Z,10.56
2018-12-09T20:31:06.576Z,10.54
2018-12-09T20:33:35.316Z,10.53
2018-12-09T20:36:04.023Z,10.51
2018-12-09T20:38:32.679Z,10.51
2018-12-09T20:41:01.331Z,10.51
2018-12-09T20:43:30.015Z,10.52
2018-12-09T20:45:58.776Z,10.53
2018-12-09T20:48:27.439Z,10.54
2018-12-09T20:50:56.102Z,10.55
2018-12-09T20:53:24.742Z,10.55
2018-12-09T20:55:54.011Z,10.55
2018-12-09T20:58:22.655Z,10.55
2018-12-09T21:00:51.375Z,10.52
2018-12-09T21:03:20.032Z,10.50
2018-12-09T21:05:48.710Z,10.49
2018-12-09T21:08:17.778Z,10.50
2018-12-09T21:10:46.411Z,10.52
2018-12-09T21:13:15.078Z,10.53
2018-12-09T21:15:43.779Z,10.53
2018-12-09T21:18:12.502Z,10.54
2018-12-09T21:20:41.198Z,10.54
2018-12-09T21:23:10.702Z,10.53
2018-12-09T21:25:39.456Z,10.52
2018-12-09T21:28:08.267Z,10.52
2018-12-09T21:30:36.981Z,10.52
2018-12-09T21:33:05.686Z,10.52
2018-12-09T21:35:35.310Z,10.51
2018-12-09T21:38:03.997Z,10.49
2018-12-09T21:40:32.603Z,10.49
2018-12-09T21:43:01.210Z,10.46
2018-12-09T21:45:29.819Z,10.45
2018-12-09T21:47:58.437Z,10.43
2018-12-09T21:50:27.047Z,10.42
2018-12-09T21:52:55.702Z,10.39
2018-12-09T21:55:24.393Z,10.38
2018-12-09T21:57:53.072Z,10.37
2018-12-09T22:00:21.794Z,10.36
2018-12-09T22:02:50.454Z,10.36
2018-12-09T22:05:19.122Z,10.34
2018-12-09T22:07:47.827Z,10.32
2018-12-09T22:10:16.526Z,10.30
2018-12-09T22:12:45.234Z,10.28
2018-12-09T22:15:14.051Z,10.27
2018-12-09T22:17:42.665Z,10.25
2018-12-09T22:20:11.501Z,10.23
2018-12-09T22:22:40.328Z,10.21
2018-12-09T22:25:09.035Z,10.19
2018-12-09T22:27:37.758Z,10.18
2018-12-09T22:30:06.730Z,10.17
2018-12-09T22:32:35.485Z,10.18
2018-12-09T22:35:04.570Z,10.17
2018-12-09T22:37:33.387Z,10.18
2018-12-09T22:40:02.047Z,10.19
2018-12-09T22:42:31.036Z,10.20
2018-12-09T22:44:59.806Z,10.21
2018-12-09T22:47:28.565Z,10.22
2018-12-09T22:49:57.173Z,10.22
2018-12-09T22:52:25.778Z,10.23
2018-12-09T22:54:54.409Z,10.23
2018-12-09T22:57:23.062Z,10.23
2018-12-09T22:59:51.683Z,10.24
2018-12-09T23:02:25.402Z,10.25
2018-12-09T23:04:54.046Z,10.24
2018-12-09T23:07:27.776Z,10.25
2018-12-09T23:09:56.387Z,10.26
2018-12-09T23:12:25.070Z,10.25
2018-12-09T23:14:53.686Z,10.25
2018-12-09T23:17:22.278Z,10.23
2018-12-09T23:19:50.911Z,10.21
2018-12-09T23:22:19.565Z,10.20
2018-12-09T23:24:48.348Z,10.19
2018-12-09T23:27:16.978Z,10.18
2018-12-09T23:29:45.586Z,10.18
2018-12-09T23:32:14.206Z,10.19
2018-12-09T23:34:42.861Z,10.20
2018-12-09T23:37:11.481Z,10.19
2018-12-09T23:39:40.109Z,10.19
2018-12-09T23:42:08.743Z,10.18
2018-12-09T23:44:37.497Z,10.19
2018-12-09T23:47:06.146Z,10.17
2018-12-09T23:49:34.790Z,10.15
2018-12-09T23:52:03.398Z,10.12
2018-12-09T23:54:32.060Z,10.10
2018-12-09T23:57:00.682Z,10.10
2018-12-09T23:59:29.314Z,10.07
